sensor_id;sensor_type;location;lat;lon;timestamp;pressure;altitude;pressure_sealevel;temperature;humidity
72428;BME280;60419;48.880;18.036;2023-12-29T00:02:33;99335.22;;;4.61;79.49
72428;BME280;60419;48.880;18.036;2023-12-29T00:05:19;99337.06;;;5.08;78.14
72428;BME280;60419;48.880;18.036;2023-12-29T00:08:04;99333.81;;;5.01;76.50
72428;BME280;60419;48.880;18.036;2023-12-29T00:10:50;99340.34;;;5.21;75.68
72428;BME280;60419;48.880;18.036;2023-12-29T00:13:35;99322.44;;;5.42;75.12
72428;BME280;60419;48.880;18.036;2023-12-29T00:16:21;99322.03;;;4.97;76.16
72428;BME280;60419;48.880;18.036;2023-12-29T00:19:06;99319.75;;;5.37;75.10
72428;BME280;60419;48.880;18.036;2023-12-29T00:21:51;99298.03;;;5.38;74.80
72428;BME280;60419;48.880;18.036;2023-12-29T00:24:37;99322.06;;;5.07;76.49
72428;BME280;60419;48.880;18.036;2023-12-29T00:27:24;99311.94;;;5.20;76.04
72428;BME280;60419;48.880;18.036;2023-12-29T00:30:10;99313.84;;;5.29;75.33
72428;BME280;60419;48.880;18.036;2023-12-29T00:32:56;99308.56;;;5.60;74.50
72428;BME280;60419;48.880;18.036;2023-12-29T00:35:41;99297.81;;;4.77;76.24
72428;BME280;60419;48.880;18.036;2023-12-29T00:38:27;99323.84;;;4.91;77.69
72428;BME280;60419;48.880;18.036;2023-12-29T00:41:15;99322.94;;;5.23;77.15
72428;BME280;60419;48.880;18.036;2023-12-29T00:44:00;99329.09;;;5.24;76.71
72428;BME280;60419;48.880;18.036;2023-12-29T00:46:46;99300.09;;;5.00;76.75
72428;BME280;60419;48.880;18.036;2023-12-29T00:49:31;99320.56;;;5.37;76.30
72428;BME280;60419;48.880;18.036;2023-12-29T00:52:17;99317.97;;;4.89;77.02
72428;BME280;60419;48.880;18.036;2023-12-29T00:55:04;99313.25;;;5.17;77.39
72428;BME280;60419;48.880;18.036;2023-12-29T00:57:49;99320.03;;;5.45;76.23
72428;BME280;60419;48.880;18.036;2023-12-29T01:00:35;99320.81;;;5.41;75.97
72428;BME280;60419;48.880;18.036;2023-12-29T01:03:20;99309.03;;;5.26;76.58
72428;BME280;60419;48.880;18.036;2023-12-29T01:06:06;99307.19;;;5.42;75.63
72428;BME280;60419;48.880;18.036;2023-12-29T01:08:51;99311.25;;;5.70;75.31
72428;BME280;60419;48.880;18.036;2023-12-29T01:11:36;99310.63;;;5.32;75.70
72428;BME280;60419;48.880;18.036;2023-12-29T01:14:22;99308.06;;;4.90;77.14
72428;BME280;60419;48.880;18.036;2023-12-29T01:17:07;99316.50;;;4.66;78.87
72428;BME280;60419;48.880;18.036;2023-12-29T01:19:52;99309.53;;;4.23;79.33
72428;BME280;60419;48.880;18.036;2023-12-29T01:22:38;99302.56;;;4.17;80.71
72428;BME280;60419;48.880;18.036;2023-12-29T01:25:23;99305.19;;;4.12;80.75
72428;BME280;60419;48.880;18.036;2023-12-29T01:28:09;99310.13;;;4.30;80.41
72428;BME280;60419;48.880;18.036;2023-12-29T01:30:54;99302.44;;;4.39;79.76
72428;BME280;60419;48.880;18.036;2023-12-29T01:33:40;99297.03;;;4.81;77.76
72428;BME280;60419;48.880;18.036;2023-12-29T01:36:25;99308.59;;;4.92;77.35
72428;BME280;60419;48.880;18.036;2023-12-29T01:39:11;99295.06;;;5.24;76.48
72428;BME280;60419;48.880;18.036;2023-12-29T01:41:56;99292.69;;;5.38;75.57
72428;BME280;60419;48.880;18.036;2023-12-29T01:44:42;99287.81;;;5.14;76.50
72428;BME280;60419;48.880;18.036;2023-12-29T01:47:28;99291.38;;;5.51;75.78
72428;BME280;60419;48.880;18.036;2023-12-29T01:50:14;99285.97;;;5.35;74.74
72428;BME280;60419;48.880;18.036;2023-12-29T01:53:01;99279.59;;;5.42;75.00
72428;BME280;60419;48.880;18.036;2023-12-29T01:55:49;99283.06;;;5.42;74.80
72428;BME280;60419;48.880;18.036;2023-12-29T01:58:34;99284.13;;;5.51;74.48
72428;BME280;60419;48.880;18.036;2023-12-29T02:01:20;99270.75;;;5.56;74.48
72428;BME280;60419;48.880;18.036;2023-12-29T02:04:06;99261.13;;;5.61;74.61
72428;BME280;60419;48.880;18.036;2023-12-29T02:06:52;99279.03;;;4.61;76.85
72428;BME280;60419;48.880;18.036;2023-12-29T02:09:38;99283.09;;;4.74;77.68
72428;BME280;60419;48.880;18.036;2023-12-29T02:12:24;99284.44;;;4.77;78.75
72428;BME280;60419;48.880;18.036;2023-12-29T02:15:09;99283.22;;;4.47;79.87
72428;BME280;60419;48.880;18.036;2023-12-29T02:18:01;99288.44;;;4.69;78.89
72428;BME280;60419;48.880;18.036;2023-12-29T02:20:47;99296.06;;;4.98;78.34
72428;BME280;60419;48.880;18.036;2023-12-29T02:23:33;99294.84;;;4.73;78.36
72428;BME280;60419;48.880;18.036;2023-12-29T02:26:20;99287.38;;;4.75;78.86
72428;BME280;60419;48.880;18.036;2023-12-29T02:29:10;99288.59;;;4.10;81.01
72428;BME280;60419;48.880;18.036;2023-12-29T02:31:59;99289.09;;;4.44;81.30
72428;BME280;60419;48.880;18.036;2023-12-29T02:34:46;99275.59;;;4.81;80.59
72428;BME280;60419;48.880;18.036;2023-12-29T02:37:35;99275.88;;;4.75;79.47
72428;BME280;60419;48.880;18.036;2023-12-29T02:40:21;99258.13;;;4.53;80.56
72428;BME280;60419;48.880;18.036;2023-12-29T02:43:09;99272.00;;;4.45;80.91
72428;BME280;60419;48.880;18.036;2023-12-29T02:45:54;99267.09;;;4.84;79.98
72428;BME280;60419;48.880;18.036;2023-12-29T02:48:39;99273.06;;;5.12;79.18
72428;BME280;60419;48.880;18.036;2023-12-29T02:51:25;99257.56;;;5.14;78.65
72428;BME280;60419;48.880;18.036;2023-12-29T02:54:10;99265.34;;;4.58;80.45
72428;BME280;60419;48.880;18.036;2023-12-29T02:56:55;99261.91;;;4.15;82.34
72428;BME280;60419;48.880;18.036;2023-12-29T02:59:41;99258.44;;;3.82;83.46
72428;BME280;60419;48.880;18.036;2023-12-29T03:02:27;99266.09;;;4.43;82.60
72428;BME280;60419;48.880;18.036;2023-12-29T03:05:12;99271.44;;;5.01;80.62
72428;BME280;60419;48.880;18.036;2023-12-29T03:07:58;99272.97;;;4.91;79.88
72428;BME280;60419;48.880;18.036;2023-12-29T03:10:44;99287.81;;;5.14;79.60
72428;BME280;60419;48.880;18.036;2023-12-29T03:13:29;99264.53;;;5.25;79.10
72428;BME280;60419;48.880;18.036;2023-12-29T03:16:14;99271.06;;;4.77;79.71
72428;BME280;60419;48.880;18.036;2023-12-29T03:19:00;99262.16;;;5.29;79.28
72428;BME280;60419;48.880;18.036;2023-12-29T03:21:45;99249.06;;;5.58;77.57
72428;BME280;60419;48.880;18.036;2023-12-29T03:24:31;99243.44;;;5.60;78.16
72428;BME280;60419;48.880;18.036;2023-12-29T03:27:16;99234.56;;;5.90;76.21
72428;BME280;60419;48.880;18.036;2023-12-29T03:30:01;99239.91;;;6.10;75.71
72428;BME280;60419;48.880;18.036;2023-12-29T03:32:47;99234.28;;;6.12;75.42
72428;BME280;60419;48.880;18.036;2023-12-29T03:35:32;99233.53;;;5.70;76.34
72428;BME280;60419;48.880;18.036;2023-12-29T03:38:18;99213.09;;;6.00;75.38
72428;BME280;60419;48.880;18.036;2023-12-29T03:41:03;99208.56;;;5.95;75.23
72428;BME280;60419;48.880;18.036;2023-12-29T03:43:49;99223.59;;;5.81;75.19
72428;BME280;60419;48.880;18.036;2023-12-29T03:46:34;99231.09;;;5.79;76.52
72428;BME280;60419;48.880;18.036;2023-12-29T03:49:20;99227.38;;;5.60;77.12
72428;BME280;60419;48.880;18.036;2023-12-29T03:52:05;99228.66;;;5.21;78.78
72428;BME280;60419;48.880;18.036;2023-12-29T03:54:50;99211.53;;;5.68;77.63
72428;BME280;60419;48.880;18.036;2023-12-29T03:57:36;99215.28;;;5.47;78.19
72428;BME280;60419;48.880;18.036;2023-12-29T04:00:21;99220.88;;;5.20;79.21
72428;BME280;60419;48.880;18.036;2023-12-29T04:03:07;99216.06;;;5.22;79.40
72428;BME280;60419;48.880;18.036;2023-12-29T04:05:52;99222.50;;;5.51;78.10
72428;BME280;60419;48.880;18.036;2023-12-29T04:08:38;99210.44;;;5.69;77.66
72428;BME280;60419;48.880;18.036;2023-12-29T04:11:23;99217.13;;;5.97;76.76
72428;BME280;60419;48.880;18.036;2023-12-29T04:14:08;99206.19;;;5.48;77.27
72428;BME280;60419;48.880;18.036;2023-12-29T04:16:57;99200.28;;;5.61;78.33
72428;BME280;60419;48.880;18.036;2023-12-29T04:19:44;99203.19;;;5.80;76.58
72428;BME280;60419;48.880;18.036;2023-12-29T04:22:29;99204.50;;;6.03;76.60
72428;BME280;60419;48.880;18.036;2023-12-29T04:25:15;99200.75;;;6.14;75.81
72428;BME280;60419;48.880;18.036;2023-12-29T04:28:00;99203.69;;;6.18;76.06
72428;BME280;60419;48.880;18.036;2023-12-29T04:30:45;99206.94;;;5.99;75.90
72428;BME280;60419;48.880;18.036;2023-12-29T04:33:31;99209.31;;;6.21;76.31
72428;BME280;60419;48.880;18.036;2023-12-29T04:36:16;99197.59;;;5.71;77.09
72428;BME280;60419;48.880;18.036;2023-12-29T04:39:02;99192.22;;;5.87;76.80
72428;BME280;60419;48.880;18.036;2023-12-29T04:41:47;99197.53;;;6.12;76.27
72428;BME280;60419;48.880;18.036;2023-12-29T04:44:33;99199.13;;;6.13;76.75
72428;BME280;60419;48.880;18.036;2023-12-29T04:47:18;99198.88;;;6.10;75.43
72428;BME280;60419;48.880;18.036;2023-12-29T04:50:04;99196.53;;;5.47;77.61
72428;BME280;60419;48.880;18.036;2023-12-29T04:52:51;99209.25;;;4.83;80.41
72428;BME280;60419;48.880;18.036;2023-12-29T04:55:36;99206.66;;;5.04;80.79
72428;BME280;60419;48.880;18.036;2023-12-29T04:58:21;99215.81;;;5.23;79.72
72428;BME280;60419;48.880;18.036;2023-12-29T05:01:07;99214.03;;;4.66;81.79
72428;BME280;60419;48.880;18.036;2023-12-29T05:03:53;99208.72;;;4.91;80.98
72428;BME280;60419;48.880;18.036;2023-12-29T05:06:38;99220.75;;;4.79;80.85
72428;BME280;60419;48.880;18.036;2023-12-29T05:09:24;99230.91;;;4.77;80.95
72428;BME280;60419;48.880;18.036;2023-12-29T05:12:09;99224.19;;;4.69;80.84
72428;BME280;60419;48.880;18.036;2023-12-29T05:14:55;99234.66;;;4.76;80.38
72428;BME280;60419;48.880;18.036;2023-12-29T05:17:40;99234.84;;;4.59;81.67
72428;BME280;60419;48.880;18.036;2023-12-29T05:20:25;99241.97;;;4.96;80.36
72428;BME280;60419;48.880;18.036;2023-12-29T05:23:11;99246.91;;;5.50;78.97
72428;BME280;60419;48.880;18.036;2023-12-29T05:25:56;99246.31;;;5.17;78.80
72428;BME280;60419;48.880;18.036;2023-12-29T05:28:41;99216.06;;;5.22;79.13
72428;BME280;60419;48.880;18.036;2023-12-29T05:31:27;99229.50;;;5.68;77.99
72428;BME280;60419;48.880;18.036;2023-12-29T05:34:12;99240.72;;;5.80;77.11
72428;BME280;60419;48.880;18.036;2023-12-29T05:36:58;99234.31;;;5.61;76.62
72428;BME280;60419;48.880;18.036;2023-12-29T05:39:43;99216.34;;;5.76;76.91
72428;BME280;60419;48.880;18.036;2023-12-29T05:42:29;99238.06;;;5.44;77.39
72428;BME280;60419;48.880;18.036;2023-12-29T05:45:16;99254.13;;;5.44;77.59
72428;BME280;60419;48.880;18.036;2023-12-29T05:48:02;99250.66;;;5.64;76.88
72428;BME280;60419;48.880;18.036;2023-12-29T05:50:47;99259.50;;;5.70;76.46
72428;BME280;60419;48.880;18.036;2023-12-29T05:53:33;99268.22;;;5.04;79.15
72428;BME280;60419;48.880;18.036;2023-12-29T05:56:18;99262.19;;;5.44;78.15
72428;BME280;60419;48.880;18.036;2023-12-29T05:59:04;99265.09;;;5.38;78.40
72428;BME280;60419;48.880;18.036;2023-12-29T06:01:49;99254.69;;;5.67;76.77
72428;BME280;60419;48.880;18.036;2023-12-29T06:04:34;99264.84;;;5.80;76.51
72428;BME280;60419;48.880;18.036;2023-12-29T06:07:20;99257.59;;;5.29;77.84
72428;BME280;60419;48.880;18.036;2023-12-29T06:10:05;99259.47;;;5.34;78.30
72428;BME280;60419;48.880;18.036;2023-12-29T06:12:51;99238.06;;;5.54;77.27
72428;BME280;60419;48.880;18.036;2023-12-29T06:15:37;99253.06;;;5.50;77.08
72428;BME280;60419;48.880;18.036;2023-12-29T06:18:23;99208.59;;;5.44;77.04
72428;BME280;60419;48.880;18.036;2023-12-29T06:21:08;99248.78;;;5.54;76.71
72428;BME280;60419;48.880;18.036;2023-12-29T06:23:54;99255.47;;;5.47;77.17
72428;BME280;60419;48.880;18.036;2023-12-29T06:26:39;99228.66;;;5.31;77.28
72428;BME280;60419;48.880;18.036;2023-12-29T06:29:29;99256.41;;;4.89;79.56
72428;BME280;60419;48.880;18.036;2023-12-29T06:32:15;99267.72;;;5.12;78.83
72428;BME280;60419;48.880;18.036;2023-12-29T06:35:00;99268.03;;;5.26;77.95
72428;BME280;60419;48.880;18.036;2023-12-29T06:37:46;99268.28;;;5.19;77.42
72428;BME280;60419;48.880;18.036;2023-12-29T06:40:31;99263.56;;;4.74;79.63
72428;BME280;60419;48.880;18.036;2023-12-29T06:43:17;99270.41;;;5.17;78.61
72428;BME280;60419;48.880;18.036;2023-12-29T06:46:02;99264.31;;;5.52;76.51
72428;BME280;60419;48.880;18.036;2023-12-29T06:48:47;99273.69;;;5.50;76.38
72428;BME280;60419;48.880;18.036;2023-12-29T06:51:35;99275.81;;;5.32;75.77
72428;BME280;60419;48.880;18.036;2023-12-29T06:54:25;99269.09;;;5.30;75.51
72428;BME280;60419;48.880;18.036;2023-12-29T06:57:12;99276.34;;;5.34;76.70
72428;BME280;60419;48.880;18.036;2023-12-29T06:59:59;99272.88;;;5.29;75.83
72428;BME280;60419;48.880;18.036;2023-12-29T07:02:45;99272.81;;;5.13;76.23
72428;BME280;60419;48.880;18.036;2023-12-29T07:05:30;99270.13;;;5.08;76.93
72428;BME280;60419;48.880;18.036;2023-12-29T07:08:15;99266.13;;;5.11;77.08
72428;BME280;60419;48.880;18.036;2023-12-29T07:11:01;99251.03;;;4.89;77.37
72428;BME280;60419;48.880;18.036;2023-12-29T07:13:46;99274.41;;;5.14;77.52
72428;BME280;60419;48.880;18.036;2023-12-29T07:16:32;99282.97;;;5.06;77.15
72428;BME280;60419;48.880;18.036;2023-12-29T07:19:17;99270.25;;;4.76;79.51
72428;BME280;60419;48.880;18.036;2023-12-29T07:22:03;99243.59;;;4.44;81.02
72428;BME280;60419;48.880;18.036;2023-12-29T07:24:50;99256.72;;;4.45;81.20
72428;BME280;60419;48.880;18.036;2023-12-29T07:27:35;99275.88;;;4.75;79.94
72428;BME280;60419;48.880;18.036;2023-12-29T07:30:21;99259.41;;;5.08;79.54
72428;BME280;60419;48.880;18.036;2023-12-29T07:33:06;99250.75;;;4.86;79.59
72428;BME280;60419;48.880;18.036;2023-12-29T07:35:51;99250.06;;;5.16;79.01
72428;BME280;60419;48.880;18.036;2023-12-29T07:38:37;99246.09;;;5.29;78.60
72428;BME280;60419;48.880;18.036;2023-12-29T07:41:23;99254.38;;;5.38;78.06
72428;BME280;60419;48.880;18.036;2023-12-29T07:44:11;99235.63;;;5.38;77.50
72428;BME280;60419;48.880;18.036;2023-12-29T07:46:59;99262.13;;;5.13;79.12
72428;BME280;60419;48.880;18.036;2023-12-29T07:49:45;99240.41;;;5.10;80.15
72428;BME280;60419;48.880;18.036;2023-12-29T07:52:30;99240.94;;;5.17;79.41
72428;BME280;60419;48.880;18.036;2023-12-29T07:55:16;99242.28;;;5.09;79.24
72428;BME280;60419;48.880;18.036;2023-12-29T07:58:04;99252.88;;;4.79;80.50
72428;BME280;60419;48.880;18.036;2023-12-29T08:00:49;99249.75;;;4.44;83.16
72428;BME280;60419;48.880;18.036;2023-12-29T08:03:34;99251.63;;;4.44;83.65
72428;BME280;60419;48.880;18.036;2023-12-29T08:06:21;99263.59;;;4.31;84.20
72428;BME280;60419;48.880;18.036;2023-12-29T08:09:06;99258.19;;;4.21;83.48
72428;BME280;60419;48.880;18.036;2023-12-29T08:11:52;99266.16;;;4.16;84.09
72428;BME280;60419;48.880;18.036;2023-12-29T08:14:38;99267.97;;;4.05;85.27
72428;BME280;60419;48.880;18.036;2023-12-29T08:17:23;99266.47;;;4.19;85.58
72428;BME280;60419;48.880;18.036;2023-12-29T08:20:09;99283.16;;;4.89;83.24
72428;BME280;60419;48.880;18.036;2023-12-29T08:22:55;99284.91;;;4.58;82.93
72428;BME280;60419;48.880;18.036;2023-12-29T08:25:42;99281.91;;;4.55;82.64
72428;BME280;60419;48.880;18.036;2023-12-29T08:28:27;99269.53;;;4.96;86.10
72428;BME280;60419;48.880;18.036;2023-12-29T08:31:14;99277.63;;;4.48;85.30
72428;BME280;60419;48.880;18.036;2023-12-29T08:33:59;99273.91;;;4.60;85.34
72428;BME280;60419;48.880;18.036;2023-12-29T08:36:45;99285.00;;;4.31;86.29
72428;BME280;60419;48.880;18.036;2023-12-29T08:39:30;99281.53;;;4.31;86.97
72428;BME280;60419;48.880;18.036;2023-12-29T08:42:15;99279.59;;;4.68;86.57
72428;BME280;60419;48.880;18.036;2023-12-29T08:45:01;99281.94;;;4.60;86.99
72428;BME280;60419;48.880;18.036;2023-12-29T08:47:48;99275.66;;;4.34;86.87
72428;BME280;60419;48.880;18.036;2023-12-29T08:50:33;99261.88;;;4.10;88.40
72428;BME280;60419;48.880;18.036;2023-12-29T08:53:19;99274.56;;;4.30;88.54
72428;BME280;60419;48.880;18.036;2023-12-29T08:56:04;99276.78;;;4.43;87.12
72428;BME280;60419;48.880;18.036;2023-12-29T08:58:50;99272.22;;;4.43;88.02
72428;BME280;60419;48.880;18.036;2023-12-29T09:01:35;99276.94;;;4.26;88.38
72428;BME280;60419;48.880;18.036;2023-12-29T09:04:21;99260.41;;;4.92;86.07
72428;BME280;60419;48.880;18.036;2023-12-29T09:07:06;99281.38;;;5.05;85.49
72428;BME280;60419;48.880;18.036;2023-12-29T09:09:52;99274.16;;;5.16;84.96
72428;BME280;60419;48.880;18.036;2023-12-29T09:12:37;99264.78;;;5.08;84.05
72428;BME280;60419;48.880;18.036;2023-12-29T09:15:23;99265.84;;;5.02;83.61
72428;BME280;60419;48.880;18.036;2023-12-29T09:18:09;99265.81;;;5.07;83.87
72428;BME280;60419;48.880;18.036;2023-12-29T09:20:55;99286.50;;;5.27;84.05
72428;BME280;60419;48.880;18.036;2023-12-29T09:23:40;99281.44;;;4.68;84.82
72428;BME280;60419;48.880;18.036;2023-12-29T09:26:26;99299.28;;;4.52;86.01
72428;BME280;60419;48.880;18.036;2023-12-29T09:29:11;99297.41;;;4.53;86.44
72428;BME280;60419;48.880;18.036;2023-12-29T09:31:57;99296.13;;;4.60;85.93
72428;BME280;60419;48.880;18.036;2023-12-29T09:34:42;99282.56;;;4.24;88.13
72428;BME280;60419;48.880;18.036;2023-12-29T09:37:28;99295.19;;;4.39;87.52
72428;BME280;60419;48.880;18.036;2023-12-29T09:40:13;99295.09;;;4.19;87.53
72428;BME280;60419;48.880;18.036;2023-12-29T09:42:59;99296.13;;;4.60;86.55
72428;BME280;60419;48.880;18.036;2023-12-29T09:45:45;99291.66;;;4.71;86.06
72428;BME280;60419;48.880;18.036;2023-12-29T09:48:34;99267.50;;;4.61;87.49
72428;BME280;60419;48.880;18.036;2023-12-29T09:51:22;99281.19;;;5.38;91.35
72428;BME280;60419;48.880;18.036;2023-12-29T09:54:09;99279.34;;;5.69;85.31
72428;BME280;60419;48.880;18.036;2023-12-29T09:56:56;99275.59;;;4.81;85.23
72428;BME280;60419;48.880;18.036;2023-12-29T09:59:41;99252.19;;;3.98;87.33
72428;BME280;60419;48.880;18.036;2023-12-29T10:02:27;99262.28;;;4.34;87.63
72428;BME280;60419;48.880;18.036;2023-12-29T10:05:15;99260.72;;;4.43;87.03
72428;BME280;60419;48.880;18.036;2023-12-29T10:08:02;99255.81;;;4.24;87.43
72428;BME280;60419;48.880;18.036;2023-12-29T10:10:51;99243.44;;;4.61;85.95
72428;BME280;60419;48.880;18.036;2023-12-29T10:13:39;99243.91;;;4.53;85.87
72428;BME280;60419;48.880;18.036;2023-12-29T10:16:32;99237.59;;;4.74;85.47
72428;BME280;60419;48.880;18.036;2023-12-29T10:19:34;99242.59;;;4.60;86.41
72428;BME280;60419;48.880;18.036;2023-12-29T10:22:41;99240.78;;;4.66;84.94
72428;BME280;60419;48.880;18.036;2023-12-29T10:25:30;99232.53;;;4.78;84.84
72428;BME280;60419;48.880;18.036;2023-12-29T10:28:16;99239.22;;;4.80;85.34
72428;BME280;60419;48.880;18.036;2023-12-29T10:31:04;99240.78;;;4.66;85.03
72428;BME280;60419;48.880;18.036;2023-12-29T10:33:51;99238.50;;;5.00;84.64
72428;BME280;60419;48.880;18.036;2023-12-29T10:36:49;99240.09;;;4.96;84.09
72428;BME280;60419;48.880;18.036;2023-12-29T10:39:35;99239.69;;;4.62;85.01
72428;BME280;60419;48.880;18.036;2023-12-29T10:42:21;99236.69;;;4.48;86.03
72428;BME280;60419;48.880;18.036;2023-12-29T10:45:09;99242.81;;;4.43;86.54
72428;BME280;60419;48.880;18.036;2023-12-29T10:47:55;99236.47;;;4.60;86.10
72428;BME280;60419;48.880;18.036;2023-12-29T10:50:44;99227.59;;;4.49;85.78
72428;BME280;60419;48.880;18.036;2023-12-29T10:53:33;99218.53;;;4.60;86.23
72428;BME280;60419;48.880;18.036;2023-12-29T10:56:19;99188.88;;;4.67;84.39
72428;BME280;60419;48.880;18.036;2023-12-29T10:59:07;99216.16;;;4.64;84.15
72428;BME280;60419;48.880;18.036;2023-12-29T11:01:52;99222.56;;;4.68;83.64
72428;BME280;60419;48.880;18.036;2023-12-29T11:04:38;99229.50;;;4.59;83.98
72428;BME280;60419;48.880;18.036;2023-12-29T11:07:41;99219.34;;;4.61;85.03
72428;BME280;60419;48.880;18.036;2023-12-29T11:10:29;99211.38;;;4.71;84.29
72428;BME280;60419;48.880;18.036;2023-12-29T11:13:15;99202.31;;;4.92;83.46
72428;BME280;60419;48.880;18.036;2023-12-29T11:16:01;99194.75;;;4.64;84.15
72428;BME280;60419;48.880;18.036;2023-12-29T11:18:47;99166.88;;;4.55;83.67
72428;BME280;60419;48.880;18.036;2023-12-29T11:21:35;99192.63;;;4.66;83.73
72428;BME280;60419;48.880;18.036;2023-12-29T11:24:21;99192.81;;;4.49;84.30
72428;BME280;60419;48.880;18.036;2023-12-29T11:27:07;99190.28;;;4.90;83.81
72428;BME280;60419;48.880;18.036;2023-12-29T11:29:53;99180.84;;;4.72;82.65
72428;BME280;60419;48.880;18.036;2023-12-29T11:32:49;99171.75;;;4.78;89.05
72428;BME280;60419;48.880;18.036;2023-12-29T11:35:44;99173.97;;;4.23;85.82
72428;BME280;60419;48.880;18.036;2023-12-29T11:44:25;99180.72;;;4.36;85.42
72428;BME280;60419;48.880;18.036;2023-12-29T11:47:35;99170.16;;;4.72;85.69
72428;BME280;60419;48.880;18.036;2023-12-29T11:50:32;99181.88;;;4.51;85.70
72428;BME280;60419;48.880;18.036;2023-12-29T11:53:31;99175.97;;;4.54;84.76
72428;BME280;60419;48.880;18.036;2023-12-29T11:56:16;99141.25;;;4.69;83.88
72428;BME280;60419;48.880;18.036;2023-12-29T11:59:14;99165.88;;;4.81;84.57
72428;BME280;60419;48.880;18.036;2023-12-29T12:02:00;99167.75;;;4.86;83.91
72428;BME280;60419;48.880;18.036;2023-12-29T12:04:46;99165.88;;;4.86;83.76
72428;BME280;60419;48.880;18.036;2023-12-29T12:13:08;99160.63;;;5.22;82.78
72428;BME280;60419;48.880;18.036;2023-12-29T12:15:54;99157.41;;;5.15;82.11
72428;BME280;60419;48.880;18.036;2023-12-29T12:18:39;99167.84;;;5.27;82.35
72428;BME280;60419;48.880;18.036;2023-12-29T12:21:25;99160.63;;;5.38;81.53
72428;BME280;60419;48.880;18.036;2023-12-29T12:24:11;99080.03;;;5.13;80.88
72428;BME280;60419;48.880;18.036;2023-12-29T12:26:57;99167.59;;;5.39;81.80
72428;BME280;60419;48.880;18.036;2023-12-29T12:29:42;99167.88;;;5.37;81.04
72428;BME280;60419;48.880;18.036;2023-12-29T12:32:29;99173.78;;;5.49;81.63
72428;BME280;60419;48.880;18.036;2023-12-29T12:35:15;99159.81;;;5.11;82.01
72428;BME280;60419;48.880;18.036;2023-12-29T12:38:22;99171.34;;;5.58;81.44
72428;BME280;60419;48.880;18.036;2023-12-29T12:41:10;99157.38;;;5.87;80.13
72428;BME280;60419;48.880;18.036;2023-12-29T12:44:00;99154.94;;;5.80;80.68
72428;BME280;60419;48.880;18.036;2023-12-29T12:46:50;99140.72;;;5.95;80.11
72428;BME280;60419;48.880;18.036;2023-12-29T12:49:39;99141.19;;;6.17;78.51
72428;BME280;60419;48.880;18.036;2023-12-29T12:52:25;99144.91;;;6.27;77.67
72428;BME280;60419;48.880;18.036;2023-12-29T12:55:11;99151.97;;;6.07;78.57
72428;BME280;60419;48.880;18.036;2023-12-29T12:57:58;99151.59;;;6.34;78.27
72428;BME280;60419;48.880;18.036;2023-12-29T13:00:45;99154.69;;;6.62;76.82
72428;BME280;60419;48.880;18.036;2023-12-29T13:03:31;99152.78;;;6.03;78.95
72428;BME280;60419;48.880;18.036;2023-12-29T13:06:17;99150.81;;;6.29;77.45
72428;BME280;60419;48.880;18.036;2023-12-29T13:09:03;99148.16;;;6.78;76.74
72428;BME280;60419;48.880;18.036;2023-12-29T13:12:10;99140.94;;;6.68;75.49
72428;BME280;60419;48.880;18.036;2023-12-29T13:15:08;99137.38;;;6.29;75.92
72428;BME280;60419;48.880;18.036;2023-12-29T13:17:54;99134.66;;;6.44;75.74
72428;BME280;60419;48.880;18.036;2023-12-29T13:20:49;99108.22;;;6.12;76.30
72428;BME280;60419;48.880;18.036;2023-12-29T13:23:35;99131.81;;;6.15;77.72
72428;BME280;60419;48.880;18.036;2023-12-29T13:26:21;99136.94;;;6.01;78.15
72428;BME280;60419;48.880;18.036;2023-12-29T13:29:06;99137.31;;;6.49;76.50
72428;BME280;60419;48.880;18.036;2023-12-29T13:31:53;99130.13;;;6.29;77.02
72428;BME280;60419;48.880;18.036;2023-12-29T13:34:49;99124.72;;;6.44;76.09
72428;BME280;60419;48.880;18.036;2023-12-29T13:37:46;99132.63;;;6.10;77.59
72428;BME280;60419;48.880;18.036;2023-12-29T13:43:39;99136.44;;;5.99;77.55
72428;BME280;60419;48.880;18.036;2023-12-29T13:46:27;99133.78;;;5.84;78.22
72428;BME280;60419;48.880;18.036;2023-12-29T13:49:13;99130.31;;;5.73;78.46
72428;BME280;60419;48.880;18.036;2023-12-29T13:52:00;99129.28;;;5.18;80.45
72428;BME280;60419;48.880;18.036;2023-12-29T13:54:46;99111.53;;;5.83;78.33
72428;BME280;60419;48.880;18.036;2023-12-29T13:57:33;99124.34;;;6.07;77.52
72428;BME280;60419;48.880;18.036;2023-12-29T14:00:26;99127.31;;;5.95;78.51
72428;BME280;60419;48.880;18.036;2023-12-29T14:03:23;99116.16;;;6.32;76.82
72428;BME280;60419;48.880;18.036;2023-12-29T14:06:12;99134.81;;;5.98;77.03
72428;BME280;60419;48.880;18.036;2023-12-29T14:09:04;99130.31;;;5.73;77.98
72428;BME280;60419;48.880;18.036;2023-12-29T14:11:50;99117.88;;;6.08;77.63
72428;BME280;60419;48.880;18.036;2023-12-29T14:14:37;99143.50;;;6.44;75.86
72428;BME280;60419;48.880;18.036;2023-12-29T14:17:22;99140.09;;;6.23;75.63
72428;BME280;60419;48.880;18.036;2023-12-29T14:20:08;99143.72;;;6.53;82.54
72428;BME280;60419;48.880;18.036;2023-12-29T14:23:02;99144.31;;;8.59;93.63
72428;BME280;60419;48.880;18.036;2023-12-29T14:25:47;99138.44;;;7.61;76.36
72428;BME280;60419;48.880;18.036;2023-12-29T14:28:32;99128.19;;;9.49;92.87
72428;BME280;60419;48.880;18.036;2023-12-29T14:31:18;99133.81;;;9.66;78.86
72428;BME280;60419;48.880;18.036;2023-12-29T14:34:04;99139.75;;;9.96;69.82
72428;BME280;60419;48.880;18.036;2023-12-29T14:36:50;99131.38;;;9.51;65.86
72428;BME280;60419;48.880;18.036;2023-12-29T14:39:35;99134.22;;;8.89;65.20
72428;BME280;60419;48.880;18.036;2023-12-29T14:42:20;99138.22;;;8.73;66.29
72428;BME280;60419;48.880;18.036;2023-12-29T14:45:07;99128.97;;;7.93;68.02
72428;BME280;60419;48.880;18.036;2023-12-29T14:47:52;99132.63;;;8.02;68.39
72428;BME280;60419;48.880;18.036;2023-12-29T14:50:38;99129.94;;;8.02;67.47
72428;BME280;60419;48.880;18.036;2023-12-29T14:53:23;99128.84;;;8.03;67.02
72428;BME280;60419;48.880;18.036;2023-12-29T14:56:10;99129.19;;;7.96;67.29
72428;BME280;60419;48.880;18.036;2023-12-29T14:58:56;99135.38;;;7.97;67.43